sensor_id;sensor_type;location;lat;lon;timestamp;temperature;humidity
18126;DHT22;53956;52.442;13.284;2023-11-21T00:01:02;12.80;99.90
18126;DHT22;53956;52.442;13.284;2023-11-21T00:03:31;12.80;99.90
18126;DHT22;53956;52.442;13.284;2023-11-21T00:05:57;12.80;99.90
18126;DHT22;53956;52.442;13.284;2023-11-21T00:08:24;12.90;99.90
18126;DHT22;53956;52.442;13.284;2023-11-21T00:10:50;12.80;99.90
18126;DHT22;53956;52.442;13.284;2023-11-21T00:13:17;12.70;99.90
18126;DHT22;53956;52.442;13.284;2023-11-21T00:15:44;12.50;99.90
18126;DHT22;53956;52.442;13.284;2023-11-21T00:18:10;12.50;99.90
18126;DHT22;53956;52.442;13.284;2023-11-21T00:20:38;12.60;99.90
18126;DHT22;53956;52.442;13.284;2023-11-21T00:23:05;12.40;99.90
18126;DHT22;53956;52.442;13.284;2023-11-21T00:25:32;12.20;99.90
18126;DHT22;53956;52.442;13.284;2023-11-21T00:27:59;12.10;99.90
18126;DHT22;53956;52.442;13.284;2023-11-21T00:30:27;12.20;99.90
18126;DHT22;53956;52.442;13.284;2023-11-21T00:32:54;12.00;99.90
18126;DHT22;53956;52.442;13.284;2023-11-21T00:35:20;12.10;99.90
18126;DHT22;53956;52.442;13.284;2023-11-21T00:37:49;12.10;99.90
18126;DHT22;53956;52.442;13.284;2023-11-21T00:40:15;12.00;99.90
18126;DHT22;53956;52.442;13.284;2023-11-21T00:42:44;11.80;99.90
18126;DHT22;53956;52.442;13.284;2023-11-21T00:45:12;11.80;99.90
18126;DHT22;53956;52.442;13.284;2023-11-21T00:47:38;11.60;99.90
18126;DHT22;53956;52.442;13.284;2023-11-21T00:50:07;11.50;99.90
18126;DHT22;53956;52.442;13.284;2023-11-21T00:52:34;11.40;99.90
18126;DHT22;53956;52.442;13.284;2023-11-21T00:55:03;11.40;99.90
18126;DHT22;53956;52.442;13.284;2023-11-21T00:57:30;11.50;99.90
18126;DHT22;53956;52.442;13.284;2023-11-21T00:59:56;11.40;99.90
18126;DHT22;53956;52.442;13.284;2023-11-21T01:02:23;11.40;99.90
18126;DHT22;53956;52.442;13.284;2023-11-21T01:04:50;11.20;99.90
18126;DHT22;53956;52.442;13.284;2023-11-21T01:07:17;11.10;99.90
18126;DHT22;53956;52.442;13.284;2023-11-21T01:09:45;11.00;99.90
18126;DHT22;53956;52.442;13.284;2023-11-21T01:12:13;11.00;99.90
18126;DHT22;53956;52.442;13.284;2023-11-21T01:14:40;11.10;99.90
18126;DHT22;53956;52.442;13.284;2023-11-21T01:17:07;11.00;99.90
18126;DHT22;53956;52.442;13.284;2023-11-21T01:19:33;11.00;99.90
18126;DHT22;53956;52.442;13.284;2023-11-21T01:22:00;11.10;99.90
18126;DHT22;53956;52.442;13.284;2023-11-21T01:24:28;11.10;99.90
18126;DHT22;53956;52.442;13.284;2023-11-21T01:26:54;11.20;99.90
18126;DHT22;53956;52.442;13.284;2023-11-21T01:29:22;11.00;99.90
18126;DHT22;53956;52.442;13.284;2023-11-21T01:31:49;11.10;99.90
18126;DHT22;53956;52.442;13.284;2023-11-21T01:34:15;10.90;99.90
18126;DHT22;53956;52.442;13.284;2023-11-21T01:36:42;11.00;99.90
18126;DHT22;53956;52.442;13.284;2023-11-21T01:39:08;11.10;99.90
18126;DHT22;53956;52.442;13.284;2023-11-21T01:41:40;11.00;99.90
18126;DHT22;53956;52.442;13.284;2023-11-21T01:44:09;11.20;99.90
18126;DHT22;53956;52.442;13.284;2023-11-21T01:46:38;11.00;99.90
18126;DHT22;53956;52.442;13.284;2023-11-21T01:49:05;11.10;99.90
18126;DHT22;53956;52.442;13.284;2023-11-21T01:51:32;10.90;99.90
18126;DHT22;53956;52.442;13.284;2023-11-21T01:54:01;10.90;99.90
18126;DHT22;53956;52.442;13.284;2023-11-21T01:56:30;10.90;99.90
18126;DHT22;53956;52.442;13.284;2023-11-21T01:58:57;10.80;99.90
18126;DHT22;53956;52.442;13.284;2023-11-21T02:01:24;10.90;99.90
18126;DHT22;53956;52.442;13.284;2023-11-21T02:03:53;11.10;99.90
18126;DHT22;53956;52.442;13.284;2023-11-21T02:06:21;11.10;99.90
18126;DHT22;53956;52.442;13.284;2023-11-21T02:08:49;11.20;99.90
18126;DHT22;53956;52.442;13.284;2023-11-21T02:11:16;11.10;99.90
18126;DHT22;53956;52.442;13.284;2023-11-21T02:13:46;11.10;99.90
18126;DHT22;53956;52.442;13.284;2023-11-21T02:16:15;10.80;99.90
18126;DHT22;53956;52.442;13.284;2023-11-21T02:18:42;10.80;99.90
18126;DHT22;53956;52.442;13.284;2023-11-21T02:21:10;10.80;99.90
18126;DHT22;53956;52.442;13.284;2023-11-21T02:23:38;10.90;99.90
18126;DHT22;53956;52.442;13.284;2023-11-21T02:26:07;10.70;99.90
18126;DHT22;53956;52.442;13.284;2023-11-21T02:28:35;10.70;99.90
18126;DHT22;53956;52.442;13.284;2023-11-21T02:31:01;10.70;99.90
18126;DHT22;53956;52.442;13.284;2023-11-21T02:33:30;10.60;99.90
18126;DHT22;53956;52.442;13.284;2023-11-21T02:35:59;10.60;99.90
18126;DHT22;53956;52.442;13.284;2023-11-21T02:38:26;10.60;99.90
18126;DHT22;53956;52.442;13.284;2023-11-21T02:40:54;10.60;99.90
18126;DHT22;53956;52.442;13.284;2023-11-21T02:43:20;10.60;99.90
18126;DHT22;53956;52.442;13.284;2023-11-21T02:45:47;10.70;99.90
18126;DHT22;53956;52.442;13.284;2023-11-21T02:48:13;10.80;99.90
18126;DHT22;53956;52.442;13.284;2023-11-21T02:50:40;10.70;99.90
18126;DHT22;53956;52.442;13.284;2023-11-21T02:53:08;10.80;99.90
18126;DHT22;53956;52.442;13.284;2023-11-21T02:55:36;10.80;99.90
18126;DHT22;53956;52.442;13.284;2023-11-21T02:58:04;10.60;99.90
18126;DHT22;53956;52.442;13.284;2023-11-21T03:00:31;10.70;99.90
18126;DHT22;53956;52.442;13.284;2023-11-21T03:02:59;10.60;99.90
18126;DHT22;53956;52.442;13.284;2023-11-21T03:05:26;10.60;99.90
18126;DHT22;53956;52.442;13.284;2023-11-21T03:07:54;10.70;99.90
18126;DHT22;53956;52.442;13.284;2023-11-21T03:10:21;10.80;99.90
18126;DHT22;53956;52.442;13.284;2023-11-21T03:12:48;10.60;99.90
18126;DHT22;53956;52.442;13.284;2023-11-21T03:15:16;10.60;99.90
18126;DHT22;53956;52.442;13.284;2023-11-21T03:17:43;10.60;99.90
18126;DHT22;53956;52.442;13.284;2023-11-21T03:20:10;10.60;99.90
18126;DHT22;53956;52.442;13.284;2023-11-21T03:22:37;10.50;99.90
18126;DHT22;53956;52.442;13.284;2023-11-21T03:25:05;10.50;99.90
18126;DHT22;53956;52.442;13.284;2023-11-21T03:27:35;10.40;99.90
18126;DHT22;53956;52.442;13.284;2023-11-21T03:30:03;10.50;99.90
18126;DHT22;53956;52.442;13.284;2023-11-21T03:32:33;10.40;99.90
18126;DHT22;53956;52.442;13.284;2023-11-21T03:35:01;10.30;99.90
18126;DHT22;53956;52.442;13.284;2023-11-21T03:37:28;10.10;99.90
18126;DHT22;53956;52.442;13.284;2023-11-21T03:39:54;10.20;99.90
18126;DHT22;53956;52.442;13.284;2023-11-21T03:42:21;10.20;99.90
18126;DHT22;53956;52.442;13.284;2023-11-21T03:44:48;10.20;99.90
18126;DHT22;53956;52.442;13.284;2023-11-21T03:47:15;10.00;99.90
18126;DHT22;53956;52.442;13.284;2023-11-21T03:49:43;10.00;99.90
18126;DHT22;53956;52.442;13.284;2023-11-21T03:52:10;10.00;99.90
18126;DHT22;53956;52.442;13.284;2023-11-21T03:54:37;10.20;99.90
18126;DHT22;53956;52.442;13.284;2023-11-21T03:57:04;10.30;99.90
18126;DHT22;53956;52.442;13.284;2023-11-21T03:59:31;10.20;99.90
18126;DHT22;53956;52.442;13.284;2023-11-21T04:01:57;10.30;99.90
18126;DHT22;53956;52.442;13.284;2023-11-21T04:04:24;10.10;99.90
18126;DHT22;53956;52.442;13.284;2023-11-21T04:06:52;10.10;99.90
18126;DHT22;53956;52.442;13.284;2023-11-21T04:09:19;9.90;99.90
18126;DHT22;53956;52.442;13.284;2023-11-21T04:11:45;9.90;99.90
18126;DHT22;53956;52.442;13.284;2023-11-21T04:14:12;10.10;99.90
18126;DHT22;53956;52.442;13.284;2023-11-21T04:16:40;10.20;99.90
18126;DHT22;53956;52.442;13.284;2023-11-21T04:19:07;10.20;99.90
18126;DHT22;53956;52.442;13.284;2023-11-21T04:21:35;10.10;99.90
18126;DHT22;53956;52.442;13.284;2023-11-21T04:24:04;10.20;99.90
18126;DHT22;53956;52.442;13.284;2023-11-21T04:26:32;10.20;99.90
18126;DHT22;53956;52.442;13.284;2023-11-21T04:28:58;10.10;99.90
18126;DHT22;53956;52.442;13.284;2023-11-21T04:31:25;10.00;99.90
18126;DHT22;53956;52.442;13.284;2023-11-21T04:33:51;10.00;99.90
18126;DHT22;53956;52.442;13.284;2023-11-21T04:36:19;10.30;99.90
18126;DHT22;53956;52.442;13.284;2023-11-21T04:38:46;10.20;99.90
18126;DHT22;53956;52.442;13.284;2023-11-21T04:41:14;10.10;99.90
18126;DHT22;53956;52.442;13.284;2023-11-21T04:43:40;10.10;99.90
18126;DHT22;53956;52.442;13.284;2023-11-21T04:46:08;10.20;99.90
18126;DHT22;53956;52.442;13.284;2023-11-21T04:48:35;10.20;99.90
18126;DHT22;53956;52.442;13.284;2023-11-21T04:51:01;10.20;99.90
18126;DHT22;53956;52.442;13.284;2023-11-21T04:53:29;10.20;99.90
18126;DHT22;53956;52.442;13.284;2023-11-21T04:55:56;10.20;99.90
18126;DHT22;53956;52.442;13.284;2023-11-21T04:58:24;10.30;99.90
18126;DHT22;53956;52.442;13.284;2023-11-21T05:00:50;10.30;99.90
18126;DHT22;53956;52.442;13.284;2023-11-21T05:03:17;10.40;99.90
18126;DHT22;53956;52.442;13.284;2023-11-21T05:05:43;10.30;99.90
18126;DHT22;53956;52.442;13.284;2023-11-21T05:08:10;10.40;99.90
18126;DHT22;53956;52.442;13.284;2023-11-21T05:10:37;10.30;99.90
18126;DHT22;53956;52.442;13.284;2023-11-21T05:13:04;10.30;99.90
18126;DHT22;53956;52.442;13.284;2023-11-21T05:15:36;10.30;99.90
18126;DHT22;53956;52.442;13.284;2023-11-21T05:18:04;10.30;99.90
18126;DHT22;53956;52.442;13.284;2023-11-21T05:20:30;10.20;99.90
18126;DHT22;53956;52.442;13.284;2023-11-21T05:22:58;10.10;99.90
18126;DHT22;53956;52.442;13.284;2023-11-21T05:25:25;10.10;99.90
18126;DHT22;53956;52.442;13.284;2023-11-21T05:27:51;10.20;99.90
18126;DHT22;53956;52.442;13.284;2023-11-21T05:30:20;10.10;99.90
18126;DHT22;53956;52.442;13.284;2023-11-21T05:32:49;9.90;99.90
18126;DHT22;53956;52.442;13.284;2023-11-21T05:35:16;10.00;99.90
18126;DHT22;53956;52.442;13.284;2023-11-21T05:37:43;9.90;99.90
18126;DHT22;53956;52.442;13.284;2023-11-21T05:40:11;10.00;99.90
18126;DHT22;53956;52.442;13.284;2023-11-21T05:42:39;9.80;99.90
18126;DHT22;53956;52.442;13.284;2023-11-21T05:45:07;9.90;99.90
18126;DHT22;53956;52.442;13.284;2023-11-21T05:47:37;9.90;99.90
18126;DHT22;53956;52.442;13.284;2023-11-21T05:50:07;9.90;99.90
18126;DHT22;53956;52.442;13.284;2023-11-21T05:52:36;10.10;99.90
18126;DHT22;53956;52.442;13.284;2023-11-21T05:55:04;10.10;99.90
18126;DHT22;53956;52.442;13.284;2023-11-21T05:57:32;9.90;99.90
18126;DHT22;53956;52.442;13.284;2023-11-21T05:59:59;9.80;99.90
18126;DHT22;53956;52.442;13.284;2023-11-21T06:02:26;9.70;99.90
18126;DHT22;53956;52.442;13.284;2023-11-21T06:04:53;9.80;99.90
18126;DHT22;53956;52.442;13.284;2023-11-21T06:07:21;9.70;99.90
18126;DHT22;53956;52.442;13.284;2023-11-21T06:09:47;9.70;99.90
18126;DHT22;53956;52.442;13.284;2023-11-21T06:12:15;9.80;99.90
18126;DHT22;53956;52.442;13.284;2023-11-21T06:14:42;9.50;99.90
18126;DHT22;53956;52.442;13.284;2023-11-21T06:17:09;9.50;99.90
18126;DHT22;53956;52.442;13.284;2023-11-21T06:19:36;9.40;99.90
18126;DHT22;53956;52.442;13.284;2023-11-21T06:22:03;9.70;99.90
18126;DHT22;53956;52.442;13.284;2023-11-21T06:24:31;9.60;99.90
18126;DHT22;53956;52.442;13.284;2023-11-21T06:26:57;9.50;99.90
18126;DHT22;53956;52.442;13.284;2023-11-21T06:29:24;9.70;99.90
18126;DHT22;53956;52.442;13.284;2023-11-21T06:31:52;9.80;99.90
18126;DHT22;53956;52.442;13.284;2023-11-21T06:34:20;9.60;99.90
18126;DHT22;53956;52.442;13.284;2023-11-21T06:36:47;9.50;99.90
18126;DHT22;53956;52.442;13.284;2023-11-21T06:39:13;9.40;99.90
18126;DHT22;53956;52.442;13.284;2023-11-21T06:41:43;9.40;99.90
18126;DHT22;53956;52.442;13.284;2023-11-21T06:44:09;9.40;99.90
18126;DHT22;53956;52.442;13.284;2023-11-21T06:46:36;9.50;99.90
18126;DHT22;53956;52.442;13.284;2023-11-21T06:49:04;9.50;99.90
18126;DHT22;53956;52.442;13.284;2023-11-21T06:51:32;9.50;99.90
18126;DHT22;53956;52.442;13.284;2023-11-21T06:53:58;9.50;99.90
18126;DHT22;53956;52.442;13.284;2023-11-21T06:56:25;9.70;99.90
18126;DHT22;53956;52.442;13.284;2023-11-21T06:58:53;9.70;99.90
18126;DHT22;53956;52.442;13.284;2023-11-21T07:01:20;9.50;99.90
18126;DHT22;53956;52.442;13.284;2023-11-21T07:03:46;9.60;99.90
18126;DHT22;53956;52.442;13.284;2023-11-21T07:06:13;9.60;99.90
18126;DHT22;53956;52.442;13.284;2023-11-21T07:08:39;9.60;99.90
18126;DHT22;53956;52.442;13.284;2023-11-21T07:11:06;9.70;99.90
18126;DHT22;53956;52.442;13.284;2023-11-21T07:13:33;9.80;99.90
18126;DHT22;53956;52.442;13.284;2023-11-21T07:16:02;9.70;99.90
18126;DHT22;53956;52.442;13.284;2023-11-21T07:18:28;9.80;99.90
18126;DHT22;53956;52.442;13.284;2023-11-21T07:20:55;9.90;99.90
18126;DHT22;53956;52.442;13.284;2023-11-21T07:23:24;10.00;99.90
18126;DHT22;53956;52.442;13.284;2023-11-21T07:25:51;9.90;99.90
18126;DHT22;53956;52.442;13.284;2023-11-21T07:28:18;9.90;99.90
18126;DHT22;53956;52.442;13.284;2023-11-21T07:30:44;10.00;99.90
18126;DHT22;53956;52.442;13.284;2023-11-21T07:33:12;9.80;99.90
18126;DHT22;53956;52.442;13.284;2023-11-21T07:35:39;9.70;99.90
18126;DHT22;53956;52.442;13.284;2023-11-21T07:38:05;9.70;99.90
18126;DHT22;53956;52.442;13.284;2023-11-21T07:40:32;9.60;99.90
18126;DHT22;53956;52.442;13.284;2023-11-21T07:42:58;9.50;99.90
18126;DHT22;53956;52.442;13.284;2023-11-21T07:45:25;9.50;99.90
18126;DHT22;53956;52.442;13.284;2023-11-21T07:47:53;9.60;99.90
18126;DHT22;53956;52.442;13.284;2023-11-21T07:50:21;9.40;99.90
18126;DHT22;53956;52.442;13.284;2023-11-21T07:52:48;9.60;99.90
18126;DHT22;53956;52.442;13.284;2023-11-21T07:55:15;9.80;99.90
18126;DHT22;53956;52.442;13.284;2023-11-21T07:57:42;9.60;99.90
18126;DHT22;53956;52.442;13.284;2023-11-21T08:00:10;9.70;99.90
18126;DHT22;53956;52.442;13.284;2023-11-21T08:02:40;9.60;99.90
18126;DHT22;53956;52.442;13.284;2023-11-21T08:05:08;9.70;99.90
18126;DHT22;53956;52.442;13.284;2023-11-21T08:07:37;9.60;99.90
18126;DHT22;53956;52.442;13.284;2023-11-21T08:10:05;9.70;99.90
18126;DHT22;53956;52.442;13.284;2023-11-21T08:12:32;9.90;99.90
18126;DHT22;53956;52.442;13.284;2023-11-21T08:14:59;9.80;99.90
18126;DHT22;53956;52.442;13.284;2023-11-21T08:17:25;9.60;99.90
18126;DHT22;53956;52.442;13.284;2023-11-21T08:19:52;9.60;99.90
18126;DHT22;53956;52.442;13.284;2023-11-21T08:22:19;9.70;99.90
18126;DHT22;53956;52.442;13.284;2023-11-21T08:24:47;9.60;99.90
18126;DHT22;53956;52.442;13.284;2023-11-21T08:27:13;9.80;99.90
18126;DHT22;53956;52.442;13.284;2023-11-21T08:29:41;9.70;99.90
18126;DHT22;53956;52.442;13.284;2023-11-21T08:32:07;9.50;99.90
18126;DHT22;53956;52.442;13.284;2023-11-21T08:34:35;9.80;99.90
18126;DHT22;53956;52.442;13.284;2023-11-21T08:37:01;9.40;99.90
18126;DHT22;53956;52.442;13.284;2023-11-21T08:39:28;9.50;99.90
18126;DHT22;53956;52.442;13.284;2023-11-21T08:41:57;9.50;99.90
18126;DHT22;53956;52.442;13.284;2023-11-21T08:44:23;9.40;99.90
18126;DHT22;53956;52.442;13.284;2023-11-21T08:46:50;9.50;99.90
18126;DHT22;53956;52.442;13.284;2023-11-21T08:49:17;9.60;99.90
18126;DHT22;53956;52.442;13.284;2023-11-21T08:51:44;9.40;99.90
18126;DHT22;53956;52.442;13.284;2023-11-21T08:54:11;9.40;99.90
18126;DHT22;53956;52.442;13.284;2023-11-21T08:56:37;9.60;99.90
18126;DHT22;53956;52.442;13.284;2023-11-21T08:59:05;9.60;99.90
18126;DHT22;53956;52.442;13.284;2023-11-21T09:01:33;9.80;99.90
18126;DHT22;53956;52.442;13.284;2023-11-21T09:04:00;9.50;99.90
18126;DHT22;53956;52.442;13.284;2023-11-21T09:06:27;9.40;99.90
18126;DHT22;53956;52.442;13.284;2023-11-21T09:08:54;9.50;99.90
18126;DHT22;53956;52.442;13.284;2023-11-21T09:11:21;9.60;99.90
18126;DHT22;53956;52.442;13.284;2023-11-21T09:13:50;9.70;99.90
18126;DHT22;53956;52.442;13.284;2023-11-21T09:16:19;9.60;99.90
18126;DHT22;53956;52.442;13.284;2023-11-21T09:18:45;9.40;99.90
18126;DHT22;53956;52.442;13.284;2023-11-21T09:21:12;9.40;99.90
18126;DHT22;53956;52.442;13.284;2023-11-21T09:23:39;9.60;99.90
18126;DHT22;53956;52.442;13.284;2023-11-21T09:26:05;9.70;99.90
18126;DHT22;53956;52.442;13.284;2023-11-21T09:28:32;9.60;99.90
18126;DHT22;53956;52.442;13.284;2023-11-21T09:30:59;9.40;99.90
18126;DHT22;53956;52.442;13.284;2023-11-21T09:33:28;9.50;99.90
18126;DHT22;53956;52.442;13.284;2023-11-21T09:35:55;9.70;99.90
18126;DHT22;53956;52.442;13.284;2023-11-21T09:38:23;9.70;99.90
18126;DHT22;53956;52.442;13.284;2023-11-21T09:40:49;9.70;99.90
18126;DHT22;53956;52.442;13.284;2023-11-21T09:43:18;9.60;99.90
18126;DHT22;53956;52.442;13.284;2023-11-21T09:45:46;9.70;99.90
18126;DHT22;53956;52.442;13.284;2023-11-21T09:48:14;9.70;99.90
18126;DHT22;53956;52.442;13.284;2023-11-21T09:50:43;9.70;99.90
18126;DHT22;53956;52.442;13.284;2023-11-21T09:53:13;9.80;99.90
18126;DHT22;53956;52.442;13.284;2023-11-21T09:55:43;9.80;99.90
18126;DHT22;53956;52.442;13.284;2023-11-21T09:58:10;9.90;99.90
18126;DHT22;53956;52.442;13.284;2023-11-21T10:00:40;9.80;99.90
18126;DHT22;53956;52.442;13.284;2023-11-21T10:03:07;9.70;99.90
18126;DHT22;53956;52.442;13.284;2023-11-21T10:05:34;9.60;99.90
18126;DHT22;53956;52.442;13.284;2023-11-21T10:08:04;9.80;99.90
18126;DHT22;53956;52.442;13.284;2023-11-21T10:10:33;9.60;99.90
18126;DHT22;53956;52.442;13.284;2023-11-21T10:13:02;9.70;99.90
18126;DHT22;53956;52.442;13.284;2023-11-21T10:15:33;9.70;99.90
18126;DHT22;53956;52.442;13.284;2023-11-21T10:18:02;9.70;99.90
18126;DHT22;53956;52.442;13.284;2023-11-21T10:20:30;9.60;99.90
18126;DHT22;53956;52.442;13.284;2023-11-21T10:22:59;9.60;99.90
18126;DHT22;53956;52.442;13.284;2023-11-21T10:25:28;9.40;99.90
18126;DHT22;53956;52.442;13.284;2023-11-21T10:27:59;9.30;99.90
18126;DHT22;53956;52.442;13.284;2023-11-21T10:30:32;9.40;99.90
18126;DHT22;53956;52.442;13.284;2023-11-21T10:33:02;9.50;99.90
18126;DHT22;53956;52.442;13.284;2023-11-21T10:35:42;9.30;99.90
18126;DHT22;53956;52.442;13.284;2023-11-21T10:38:12;9.50;99.90
18126;DHT22;53956;52.442;13.284;2023-11-21T10:40:41;9.60;99.90
18126;DHT22;53956;52.442;13.284;2023-11-21T10:43:08;9.60;99.90
18126;DHT22;53956;52.442;13.284;2023-11-21T10:45:36;9.60;99.90
18126;DHT22;53956;52.442;13.284;2023-11-21T10:48:05;9.70;99.90
18126;DHT22;53956;52.442;13.284;2023-11-21T10:50:33;9.60;99.90
18126;DHT22;53956;52.442;13.284;2023-11-21T10:53:01;9.50;99.90
18126;DHT22;53956;52.442;13.284;2023-11-21T10:55:29;9.50;99.90
18126;DHT22;53956;52.442;13.284;2023-11-21T10:57:59;9.50;99.90
18126;DHT22;53956;52.442;13.284;2023-11-21T11:00:27;9.50;99.90
18126;DHT22;53956;52.442;13.284;2023-11-21T11:02:54;9.50;99.90
18126;DHT22;53956;52.442;13.284;2023-11-21T11:05:23;9.40;99.90
18126;DHT22;53956;52.442;13.284;2023-11-21T11:07:54;9.60;99.90
18126;DHT22;53956;52.442;13.284;2023-11-21T11:10:25;9.60;99.90
18126;DHT22;53956;52.442;13.284;2023-11-21T11:12:53;9.50;99.90
18126;DHT22;53956;52.442;13.284;2023-11-21T11:15:22;9.50;99.90
18126;DHT22;53956;52.442;13.284;2023-11-21T11:17:49;9.60;99.90
18126;DHT22;53956;52.442;13.284;2023-11-21T11:20:17;9.60;99.90
18126;DHT22;53956;52.442;13.284;2023-11-21T11:22:55;9.60;99.90
18126;DHT22;53956;52.442;13.284;2023-11-21T11:25:35;9.60;99.90
18126;DHT22;53956;52.442;13.284;2023-11-21T11:28:07;9.70;99.90
18126;DHT22;53956;52.442;13.284;2023-11-21T11:30:45;9.50;99.90
18126;DHT22;53956;52.442;13.284;2023-11-21T11:33:23;9.50;99.90
18126;DHT22;53956;52.442;13.284;2023-11-21T11:35:56;9.50;99.90
18126;DHT22;53956;52.442;13.284;2023-11-21T11:38:31;9.50;99.90
18126;DHT22;53956;52.442;13.284;2023-11-21T11:41:02;9.50;99.90
18126;DHT22;53956;52.442;13.284;2023-11-21T11:43:29;9.70;99.90
18126;DHT22;53956;52.442;13.284;2023-11-21T11:46:03;9.60;99.90
18126;DHT22;53956;52.442;13.284;2023-11-21T11:48:30;9.40;99.90
18126;DHT22;53956;52.442;13.284;2023-11-21T11:51:02;9.30;99.90
18126;DHT22;53956;52.442;13.284;2023-11-21T11:53:35;9.20;99.90
18126;DHT22;53956;52.442;13.284;2023-11-21T11:56:20;9.20;99.90
18126;DHT22;53956;52.442;13.284;2023-11-21T11:58:47;9.30;99.90
18126;DHT22;53956;52.442;13.284;2023-11-21T12:01:18;9.20;99.90
18126;DHT22;53956;52.442;13.284;2023-11-21T12:03:52;9.00;99.90
18126;DHT22;53956;52.442;13.284;2023-11-21T12:06:34;9.00;99.90
18126;DHT22;53956;52.442;13.284;2023-11-21T12:09:01;9.20;99.90
18126;DHT22;53956;52.442;13.284;2023-11-21T12:11:30;8.90;99.90
18126;DHT22;53956;52.442;13.284;2023-11-21T12:13:58;9.20;99.90
18126;DHT22;53956;52.442;13.284;2023-11-21T12:16:26;9.00;99.90
18126;DHT22;53956;52.442;13.284;2023-11-21T12:18:53;9.10;99.90
18126;DHT22;53956;52.442;13.284;2023-11-21T12:21:20;9.20;99.90
18126;DHT22;53956;52.442;13.284;2023-11-21T12:23:47;9.00;99.90
18126;DHT22;53956;52.442;13.284;2023-11-21T12:26:13;8.80;99.90
18126;DHT22;53956;52.442;13.284;2023-11-21T12:28:40;8.70;99.90
18126;DHT22;53956;52.442;13.284;2023-11-21T12:31:07;9.00;99.90
18126;DHT22;53956;52.442;13.284;2023-11-21T12:33:35;8.70;99.90
18126;DHT22;53956;52.442;13.284;2023-11-21T12:36:02;8.80;99.90
18126;DHT22;53956;52.442;13.284;2023-11-21T12:38:34;9.00;99.90
18126;DHT22;53956;52.442;13.284;2023-11-21T12:41:01;8.90;99.90
18126;DHT22;53956;52.442;13.284;2023-11-21T12:43:28;8.80;99.90
18126;DHT22;53956;52.442;13.284;2023-11-21T12:46:04;8.90;99.90
18126;DHT22;53956;52.442;13.284;2023-11-21T12:48:32;9.00;99.90
18126;DHT22;53956;52.442;13.284;2023-11-21T12:51:00;8.80;99.90
18126;DHT22;53956;52.442;13.284;2023-11-21T12:53:28;8.90;99.90
18126;DHT22;53956;52.442;13.284;2023-11-21T12:56:02;9.10;99.90
18126;DHT22;53956;52.442;13.284;2023-11-21T12:58:29;8.80;99.90
18126;DHT22;53956;52.442;13.284;2023-11-21T13:00:57;8.60;99.90
18126;DHT22;53956;52.442;13.284;2023-11-21T13:03:25;8.80;99.90
18126;DHT22;53956;52.442;13.284;2023-11-21T13:05:53;8.80;99.90
18126;DHT22;53956;52.442;13.284;2023-11-21T13:08:25;8.80;99.90
18126;DHT22;53956;52.442;13.284;2023-11-21T13:10:53;8.80;99.90
18126;DHT22;53956;52.442;13.284;2023-11-21T13:13:21;9.00;99.90
18126;DHT22;53956;52.442;13.284;2023-11-21T13:15:48;8.80;99.90
18126;DHT22;53956;52.442;13.284;2023-11-21T13:18:15;9.10;99.90
18126;DHT22;53956;52.442;13.284;2023-11-21T13:20:43;9.20;99.90
18126;DHT22;53956;52.442;13.284;2023-11-21T13:23:11;9.10;99.90
18126;DHT22;53956;52.442;13.284;2023-11-21T13:25:39;9.00;99.90
18126;DHT22;53956;52.442;13.284;2023-11-21T13:28:07;9.00;99.90
18126;DHT22;53956;52.442;13.284;2023-11-21T13:30:35;8.80;99.90
18126;DHT22;53956;52.442;13.284;2023-11-21T13:33:02;9.00;99.90
18126;DHT22;53956;52.442;13.284;2023-11-21T13:35:32;8.50;99.90
18126;DHT22;53956;52.442;13.284;2023-11-21T13:38:04;8.60;99.90
18126;DHT22;53956;52.442;13.284;2023-11-21T13:40:32;8.70;99.90
18126;DHT22;53956;52.442;13.284;2023-11-21T13:43:01;8.80;99.90
18126;DHT22;53956;52.442;13.284;2023-11-21T13:45:30;8.70;99.90
18126;DHT22;53956;52.442;13.284;2023-11-21T13:47:57;8.30;99.90
18126;DHT22;53956;52.442;13.284;2023-11-21T13:50:24;8.20;99.90
18126;DHT22;53956;52.442;13.284;2023-11-21T13:52:56;8.30;99.90
18126;DHT22;53956;52.442;13.284;2023-11-21T13:55:24;8.20;99.90
18126;DHT22;53956;52.442;13.284;2023-11-21T13:57:51;8.50;99.90
18126;DHT22;53956;52.442;13.284;2023-11-21T14:00:19;8.40;99.90
18126;DHT22;53956;52.442;13.284;2023-11-21T14:03:18;8.50;99.90
18126;DHT22;53956;52.442;13.284;2023-11-21T14:05:47;8.50;99.90
18126;DHT22;53956;52.442;13.284;2023-11-21T14:08:17;8.60;99.90
18126;DHT22;53956;52.442;13.284;2023-11-21T14:10:46;8.60;99.90
18126;DHT22;53956;52.442;13.284;2023-11-21T14:13:16;8.50;99.90
18126;DHT22;53956;52.442;13.284;2023-11-21T14:15:45;8.60;99.90
18126;DHT22;53956;52.442;13.284;2023-11-21T14:18:16;8.50;99.90
18126;DHT22;53956;52.442;13.284;2023-11-21T14:20:46;8.60;99.90
18126;DHT22;53956;52.442;13.284;2023-11-21T14:23:13;8.40;99.90
18126;DHT22;53956;52.442;13.284;2023-11-21T14:25:40;8.20;99.90
18126;DHT22;53956;52.442;13.284;2023-11-21T14:28:07;8.20;99.90
18126;DHT22;53956;52.442;13.284;2023-11-21T14:30:37;8.20;99.90
18126;DHT22;53956;52.442;13.284;2023-11-21T14:33:06;8.30;99.90
18126;DHT22;53956;52.442;13.284;2023-11-21T14:35:33;8.30;99.90
18126;DHT22;53956;52.442;13.284;2023-11-21T14:38:00;8.10;99.90
18126;DHT22;53956;52.442;13.284;2023-11-21T14:40:30;8.40;99.90
18126;DHT22;53956;52.442;13.284;2023-11-21T14:42:59;8.10;99.90
18126;DHT22;53956;52.442;13.284;2023-11-21T14:45:26;7.90;99.90
18126;DHT22;53956;52.442;13.284;2023-11-21T14:47:54;7.90;99.90
18126;DHT22;53956;52.442;13.284;2023-11-21T14:50:25;7.80;99.90
18126;DHT22;53956;52.442;13.284;2023-11-21T14:53:10;8.10;99.90
18126;DHT22;53956;52.442;13.284;2023-11-21T14:55:38;8.00;99.90
18126;DHT22;53956;52.442;13.284;2023-11-21T14:58:18;8.10;99.90
18126;DHT22;53956;52.442;13.284;2023-11-21T15:00:53;8.10;99.90
18126;DHT22;53956;52.442;13.284;2023-11-21T15:03:24;8.10;99.90
18126;DHT22;53956;52.442;13.284;2023-11-21T15:06:10;8.20;99.90
18126;DHT22;53956;52.442;13.284;2023-11-21T15:08:49;7.90;99.90
18126;DHT22;53956;52.442;13.284;2023-11-21T15:11:21;8.00;99.90
18126;DHT22;53956;52.442;13.284;2023-11-21T15:13:53;8.10;99.90
18126;DHT22;53956;52.442;13.284;2023-11-21T15:16:19;7.80;99.90
18126;DHT22;53956;52.442;13.284;2023-11-21T15:18:46;7.90;99.90
18126;DHT22;53956;52.442;13.284;2023-11-21T15:21:14;7.80;99.90
18126;DHT22;53956;52.442;13.284;2023-11-21T15:23:41;7.90;99.90
18126;DHT22;53956;52.442;13.284;2023-11-21T15:26:07;7.60;99.90
18126;DHT22;53956;52.442;13.284;2023-11-21T15:28:35;7.60;99.90
18126;DHT22;53956;52.442;13.284;2023-11-21T15:31:02;7.80;99.90